sensor_id;sensor_type;location;lat;lon;timestamp;pressure;altitude;pressure_sealevel;temperature;humidity
55424;BME280;41294;42.666;23.350;2023-04-22T00:01:42;94619.69;;;10.49;88.59
55424;BME280;41294;42.666;23.350;2023-04-22T00:04:11;94617.81;;;10.41;88.42
55424;BME280;41294;42.666;23.350;2023-04-22T00:06:39;94622.31;;;10.49;88.14
55424;BME280;41294;42.666;23.350;2023-04-22T00:09:05;94613.91;;;10.27;88.98
55424;BME280;41294;42.666;23.350;2023-04-22T00:11:30;94612.75;;;10.19;89.71
55424;BME280;41294;42.666;23.350;2023-04-22T00:13:56;94611.28;;;10.18;89.62
55424;BME280;41294;42.666;23.350;2023-04-22T00:16:23;94609.84;;;10.17;89.48
55424;BME280;41294;42.666;23.350;2023-04-22T00:18:54;94608.06;;;10.14;89.98
55424;BME280;41294;42.666;23.350;2023-04-22T00:21:20;94606.78;;;10.01;90.96
55424;BME280;41294;42.666;23.350;2023-04-22T00:23:48;94608.25;;;9.84;92.24
55424;BME280;41294;42.666;23.350;2023-04-22T00:26:14;94613.34;;;9.87;91.70
55424;BME280;41294;42.666;23.350;2023-04-22T00:28:40;94611.00;;;9.89;92.69
55424;BME280;41294;42.666;23.350;2023-04-22T00:31:08;94618.91;;;9.89;92.07
55424;BME280;41294;42.666;23.350;2023-04-22T00:33:35;94616.56;;;9.91;91.76
55424;BME280;41294;42.666;23.350;2023-04-22T00:36:01;94612.19;;;9.88;91.84
55424;BME280;41294;42.666;23.350;2023-04-22T00:38:27;94618.91;;;9.80;91.85
55424;BME280;41294;42.666;23.350;2023-04-22T00:40:52;94612.34;;;9.67;92.79
55424;BME280;41294;42.666;23.350;2023-04-22T00:43:17;94621.84;;;9.65;93.17
55424;BME280;41294;42.666;23.350;2023-04-22T00:45:43;94619.81;;;9.60;93.40
55424;BME280;41294;42.666;23.350;2023-04-22T00:48:09;94619.50;;;9.58;93.29
55424;BME280;41294;42.666;23.350;2023-04-22T00:50:34;94620.06;;;9.53;94.05
55424;BME280;41294;42.666;23.350;2023-04-22T00:53:00;94627.97;;;9.53;93.55
55424;BME280;41294;42.666;23.350;2023-04-22T00:55:25;94627.69;;;9.51;94.21
55424;BME280;41294;42.666;23.350;2023-04-22T00:57:53;94625.31;;;9.53;94.62
55424;BME280;41294;42.666;23.350;2023-04-22T01:00:20;94632.34;;;9.65;95.21
55424;BME280;41294;42.666;23.350;2023-04-22T01:02:51;94632.50;;;9.70;94.48
55424;BME280;41294;42.666;23.350;2023-04-22T01:05:17;94623.00;;;9.73;94.36
55424;BME280;41294;42.666;23.350;2023-04-22T01:07:42;94628.41;;;9.69;94.74
55424;BME280;41294;42.666;23.350;2023-04-22T01:10:08;94632.66;;;9.67;94.15
55424;BME280;41294;42.666;23.350;2023-04-22T01:12:33;94633.38;;;9.58;94.64
55424;BME280;41294;42.666;23.350;2023-04-22T01:14:59;94630.31;;;9.60;94.47
55424;BME280;41294;42.666;23.350;2023-04-22T01:17:25;94634.25;;;9.46;94.54
55424;BME280;41294;42.666;23.350;2023-04-22T01:19:51;94626.22;;;9.41;94.76
55424;BME280;41294;42.666;23.350;2023-04-22T01:22:17;94629.00;;;9.37;94.60
55424;BME280;41294;42.666;23.350;2023-04-22T01:24:43;94636.25;;;9.33;95.00
55424;BME280;41294;42.666;23.350;2023-04-22T01:27:08;94631.88;;;9.39;95.02
55424;BME280;41294;42.666;23.350;2023-04-22T01:29:35;94633.19;;;9.44;94.51
55424;BME280;41294;42.666;23.350;2023-04-22T01:32:02;94632.03;;;9.45;93.78
55424;BME280;41294;42.666;23.350;2023-04-22T01:34:29;94628.09;;;9.40;94.50
55424;BME280;41294;42.666;23.350;2023-04-22T01:36:55;94631.75;;;9.34;94.43
55424;BME280;41294;42.666;23.350;2023-04-22T01:39:20;94628.69;;;9.26;94.66
55424;BME280;41294;42.666;23.350;2023-04-22T01:41:45;94627.66;;;9.33;94.96
55424;BME280;41294;42.666;23.350;2023-04-22T01:44:11;94628.25;;;9.37;94.10
55424;BME280;41294;42.666;23.350;2023-04-22T01:46:36;94627.06;;;9.38;94.17
55424;BME280;41294;42.666;23.350;2023-04-22T01:49:02;94620.97;;;9.41;95.15
55424;BME280;41294;42.666;23.350;2023-04-22T01:51:27;94624.16;;;9.45;94.44
55424;BME280;41294;42.666;23.350;2023-04-22T01:53:54;94622.56;;;9.47;94.83
55424;BME280;41294;42.666;23.350;2023-04-22T01:56:19;94623.28;;;9.48;94.36
55424;BME280;41294;42.666;23.350;2023-04-22T01:58:45;94612.94;;;9.44;93.99
55424;BME280;41294;42.666;23.350;2023-04-22T02:01:11;94622.28;;;9.54;94.49
55424;BME280;41294;42.666;23.350;2023-04-22T02:03:37;94627.97;;;9.62;93.42
55424;BME280;41294;42.666;23.350;2023-04-22T02:06:03;94630.88;;;9.64;93.97
55424;BME280;41294;42.666;23.350;2023-04-22T02:08:29;94630.88;;;9.46;94.21
55424;BME280;41294;42.666;23.350;2023-04-22T02:10:54;94623.59;;;9.41;95.24
55424;BME280;41294;42.666;23.350;2023-04-22T02:13:20;94625.63;;;9.46;95.47
55424;BME280;41294;42.666;23.350;2023-04-22T02:15:45;94622.72;;;9.62;94.58
55424;BME280;41294;42.666;23.350;2023-04-22T02:18:12;94632.66;;;9.67;94.37
55424;BME280;41294;42.666;23.350;2023-04-22T02:20:50;94627.69;;;9.60;95.05
55424;BME280;41294;42.666;23.350;2023-04-22T02:23:20;94627.84;;;9.47;96.26
55424;BME280;41294;42.666;23.350;2023-04-22T02:25:50;94626.22;;;9.59;96.07
55424;BME280;41294;42.666;23.350;2023-04-22T02:28:16;94622.59;;;9.65;95.46
55424;BME280;41294;42.666;23.350;2023-04-22T02:30:42;94623.00;;;9.64;95.50
55424;BME280;41294;42.666;23.350;2023-04-22T02:33:08;94627.41;;;9.58;96.06
55424;BME280;41294;42.666;23.350;2023-04-22T02:35:33;94625.63;;;9.64;95.21
55424;BME280;41294;42.666;23.350;2023-04-22T02:37:58;94629.13;;;9.70;95.57
55424;BME280;41294;42.666;23.350;2023-04-22T02:40:24;94629.44;;;9.63;95.64
55424;BME280;41294;42.666;23.350;2023-04-22T02:42:49;94632.34;;;9.65;96.20
55424;BME280;41294;42.666;23.350;2023-04-22T02:45:15;94638.06;;;9.54;96.80
55424;BME280;41294;42.666;23.350;2023-04-22T02:47:40;94637.91;;;9.58;96.46
55424;BME280;41294;42.666;23.350;2023-04-22T02:50:06;94631.63;;;9.73;96.13
55424;BME280;41294;42.666;23.350;2023-04-22T02:52:32;94638.47;;;9.79;95.42
55424;BME280;41294;42.666;23.350;2023-04-22T02:54:58;94642.16;;;9.82;95.07
55424;BME280;41294;42.666;23.350;2023-04-22T02:57:23;94652.38;;;9.71;95.31
55424;BME280;41294;42.666;23.350;2023-04-22T02:59:50;94639.94;;;9.80;94.68
55424;BME280;41294;42.666;23.350;2023-04-22T03:02:15;94638.47;;;9.71;94.79
55424;BME280;41294;42.666;23.350;2023-04-22T03:04:41;94638.75;;;9.55;95.94
55424;BME280;41294;42.666;23.350;2023-04-22T03:07:06;94644.03;;;9.55;95.98
55424;BME280;41294;42.666;23.350;2023-04-22T03:09:32;94632.19;;;9.59;95.87
55424;BME280;41294;42.666;23.350;2023-04-22T03:11:57;94641.41;;;9.73;95.26
55424;BME280;41294;42.666;23.350;2023-04-22T03:14:22;94651.75;;;9.67;95.12
55424;BME280;41294;42.666;23.350;2023-04-22T03:16:48;94643.44;;;9.33;97.16
55424;BME280;41294;42.666;23.350;2023-04-22T03:19:13;94646.78;;;9.33;97.13
55424;BME280;41294;42.666;23.350;2023-04-22T03:21:38;94651.88;;;9.37;97.38
55424;BME280;41294;42.666;23.350;2023-04-22T03:24:04;94648.06;;;9.29;98.05
55424;BME280;41294;42.666;23.350;2023-04-22T03:26:30;94646.94;;;9.39;97.09
55424;BME280;41294;42.666;23.350;2023-04-22T03:28:55;94648.41;;;9.40;96.75
55424;BME280;41294;42.666;23.350;2023-04-22T03:31:20;94645.47;;;9.38;96.64
55424;BME280;41294;42.666;23.350;2023-04-22T03:33:46;94658.28;;;9.27;97.09
55424;BME280;41294;42.666;23.350;2023-04-22T03:36:11;94655.97;;;9.38;96.26
55424;BME280;41294;42.666;23.350;2023-04-22T03:38:37;94657.44;;;9.39;96.26
55424;BME280;41294;42.666;23.350;2023-04-22T03:41:02;94663.56;;;9.36;96.44
55424;BME280;41294;42.666;23.350;2023-04-22T03:43:30;94660.66;;;9.34;96.41
55424;BME280;41294;42.666;23.350;2023-04-22T03:45:58;94666.00;;;9.30;96.50
55424;BME280;41294;42.666;23.350;2023-04-22T03:48:24;94673.47;;;9.32;96.30
55424;BME280;41294;42.666;23.350;2023-04-22T03:50:50;94661.22;;;9.38;96.43
55424;BME280;41294;42.666;23.350;2023-04-22T03:53:16;94669.75;;;9.69;95.24
55424;BME280;41294;42.666;23.350;2023-04-22T03:55:43;94671.94;;;10.24;92.95
55424;BME280;41294;42.666;23.350;2023-04-22T03:58:09;94679.88;;;10.65;90.61
55424;BME280;41294;42.666;23.350;2023-04-22T04:00:34;94667.50;;;10.89;87.96
55424;BME280;41294;42.666;23.350;2023-04-22T04:03:00;94673.66;;;11.18;86.73
55424;BME280;41294;42.666;23.350;2023-04-22T04:05:26;94681.13;;;11.52;83.64
55424;BME280;41294;42.666;23.350;2023-04-22T04:07:56;94674.31;;;11.83;80.56
55424;BME280;41294;42.666;23.350;2023-04-22T04:10:23;94675.91;;;12.04;80.84
55424;BME280;41294;42.666;23.350;2023-04-22T04:12:50;94676.19;;;12.21;80.81
55424;BME280;41294;42.666;23.350;2023-04-22T04:15:17;94686.50;;;12.62;78.66
55424;BME280;41294;42.666;23.350;2023-04-22T04:17:47;94679.69;;;12.70;76.75
55424;BME280;41294;42.666;23.350;2023-04-22T04:20:14;94678.59;;;13.25;75.16
55424;BME280;41294;42.666;23.350;2023-04-22T04:22:40;94673.16;;;13.48;74.41
55424;BME280;41294;42.666;23.350;2023-04-22T04:25:07;94679.00;;;13.52;73.07
55424;BME280;41294;42.666;23.350;2023-04-22T04:27:32;94684.13;;;14.01;71.78
55424;BME280;41294;42.666;23.350;2023-04-22T04:29:58;94684.06;;;14.35;70.48
55424;BME280;41294;42.666;23.350;2023-04-22T04:32:23;94687.00;;;14.68;69.13
55424;BME280;41294;42.666;23.350;2023-04-22T04:34:49;94691.13;;;15.00;67.92
55424;BME280;41294;42.666;23.350;2023-04-22T04:37:14;94692.69;;;15.17;67.11
55424;BME280;41294;42.666;23.350;2023-04-22T04:39:41;94697.19;;;15.06;67.12
55424;BME280;41294;42.666;23.350;2023-04-22T04:42:07;94700.16;;;15.19;66.31
55424;BME280;41294;42.666;23.350;2023-04-22T04:44:33;94706.59;;;15.38;63.93
55424;BME280;41294;42.666;23.350;2023-04-22T04:47:00;94709.91;;;14.46;65.03
55424;BME280;41294;42.666;23.350;2023-04-22T04:49:25;94708.41;;;14.65;67.05
55424;BME280;41294;42.666;23.350;2023-04-22T04:51:51;94715.34;;;15.44;64.01
55424;BME280;41294;42.666;23.350;2023-04-22T04:54:16;94717.03;;;15.94;62.34
55424;BME280;41294;42.666;23.350;2023-04-22T04:56:42;94722.50;;;15.38;63.28
55424;BME280;41294;42.666;23.350;2023-04-22T04:59:07;94727.09;;;15.37;64.17
55424;BME280;41294;42.666;23.350;2023-04-22T05:01:32;94723.72;;;16.31;61.61
55424;BME280;41294;42.666;23.350;2023-04-22T05:03:58;94711.00;;;17.17;59.20
55424;BME280;41294;42.666;23.350;2023-04-22T05:06:23;94719.91;;;16.54;58.10
55424;BME280;41294;42.666;23.350;2023-04-22T05:08:49;94719.94;;;14.62;64.86
55424;BME280;41294;42.666;23.350;2023-04-22T05:11:14;94723.66;;;14.70;66.89
55424;BME280;41294;42.666;23.350;2023-04-22T05:13:39;94725.09;;;14.45;67.28
55424;BME280;41294;42.666;23.350;2023-04-22T05:16:05;94730.75;;;14.33;67.78
55424;BME280;41294;42.666;23.350;2023-04-22T05:18:30;94724.00;;;14.32;68.32
55424;BME280;41294;42.666;23.350;2023-04-22T05:20:56;94730.06;;;14.88;65.87
55424;BME280;41294;42.666;23.350;2023-04-22T05:23:23;94734.84;;;16.41;62.23
55424;BME280;41294;42.666;23.350;2023-04-22T05:25:49;94734.13;;;15.82;62.08
55424;BME280;41294;42.666;23.350;2023-04-22T05:28:14;94727.41;;;14.88;65.92
55424;BME280;41294;42.666;23.350;2023-04-22T05:30:40;94730.97;;;14.35;68.45
55424;BME280;41294;42.666;23.350;2023-04-22T05:33:05;94726.56;;;13.67;70.97
55424;BME280;41294;42.666;23.350;2023-04-22T05:35:32;94735.69;;;13.17;73.41
55424;BME280;41294;42.666;23.350;2023-04-22T05:37:58;94731.78;;;12.84;73.84
55424;BME280;41294;42.666;23.350;2023-04-22T05:40:23;94734.09;;;13.39;72.90
55424;BME280;41294;42.666;23.350;2023-04-22T05:42:49;94736.03;;;14.13;69.44
55424;BME280;41294;42.666;23.350;2023-04-22T05:45:14;94730.53;;;13.96;70.29
55424;BME280;41294;42.666;23.350;2023-04-22T05:47:39;94734.53;;;15.33;65.20
55424;BME280;41294;42.666;23.350;2023-04-22T05:50:05;94739.44;;;15.46;64.60
55424;BME280;41294;42.666;23.350;2023-04-22T05:52:31;94733.56;;;15.05;64.56
55424;BME280;41294;42.666;23.350;2023-04-22T05:54:56;94727.94;;;15.54;63.87
55424;BME280;41294;42.666;23.350;2023-04-22T05:57:22;94732.31;;;15.26;64.80
55424;BME280;41294;42.666;23.350;2023-04-22T05:59:47;94728.53;;;15.74;62.35
55424;BME280;41294;42.666;23.350;2023-04-22T06:02:13;94723.94;;;14.77;66.11
55424;BME280;41294;42.666;23.350;2023-04-22T06:04:39;94733.56;;;15.05;65.11
55424;BME280;41294;42.666;23.350;2023-04-22T06:07:05;94730.56;;;16.59;60.98
55424;BME280;41294;42.666;23.350;2023-04-22T06:09:30;94726.50;;;17.46;57.69
55424;BME280;41294;42.666;23.350;2023-04-22T06:11:55;94729.94;;;16.23;61.43
55424;BME280;41294;42.666;23.350;2023-04-22T06:14:22;94723.34;;;16.98;59.76
55424;BME280;41294;42.666;23.350;2023-04-22T06:16:47;94727.59;;;18.00;56.73
55424;BME280;41294;42.666;23.350;2023-04-22T06:19:14;94723.41;;;18.66;54.84
55424;BME280;41294;42.666;23.350;2023-04-22T06:21:40;94726.03;;;19.41;52.64
55424;BME280;41294;42.666;23.350;2023-04-22T06:24:06;94729.47;;;20.13;50.63
55424;BME280;41294;42.666;23.350;2023-04-22T06:26:33;94726.88;;;20.26;49.41
55424;BME280;41294;42.666;23.350;2023-04-22T06:28:59;94726.56;;;20.11;50.66
55424;BME280;41294;42.666;23.350;2023-04-22T06:31:26;94729.81;;;20.04;50.54
55424;BME280;41294;42.666;23.350;2023-04-22T06:33:52;94741.72;;;18.86;53.52
55424;BME280;41294;42.666;23.350;2023-04-22T06:36:17;94725.88;;;18.64;53.17
55424;BME280;41294;42.666;23.350;2023-04-22T06:38:43;94732.22;;;18.56;54.24
55424;BME280;41294;42.666;23.350;2023-04-22T06:41:08;94734.09;;;16.29;60.49
55424;BME280;41294;42.666;23.350;2023-04-22T06:43:34;94736.41;;;16.05;62.44
55424;BME280;41294;42.666;23.350;2023-04-22T06:45:59;94730.63;;;14.98;66.25
55424;BME280;41294;42.666;23.350;2023-04-22T06:48:25;94730.44;;;14.76;66.49
55424;BME280;41294;42.666;23.350;2023-04-22T06:50:51;94733.19;;;15.49;64.71
55424;BME280;41294;42.666;23.350;2023-04-22T06:53:17;94732.91;;;15.41;65.28
55424;BME280;41294;42.666;23.350;2023-04-22T06:55:42;94735.50;;;15.36;65.04
55424;BME280;41294;42.666;23.350;2023-04-22T06:58:07;94749.13;;;15.96;62.75
55424;BME280;41294;42.666;23.350;2023-04-22T07:00:33;94736.06;;;16.40;62.14
55424;BME280;41294;42.666;23.350;2023-04-22T07:02:58;94732.75;;;17.81;57.27
55424;BME280;41294;42.666;23.350;2023-04-22T07:05:25;94730.13;;;18.78;54.24
55424;BME280;41294;42.666;23.350;2023-04-22T07:07:50;94737.38;;;20.00;50.72
55424;BME280;41294;42.666;23.350;2023-04-22T07:10:16;94735.13;;;19.81;50.40
55424;BME280;41294;42.666;23.350;2023-04-22T07:12:41;94740.84;;;19.13;52.28
55424;BME280;41294;42.666;23.350;2023-04-22T07:15:07;94735.28;;;18.65;53.33
55424;BME280;41294;42.666;23.350;2023-04-22T07:17:33;94737.69;;;18.28;54.62
55424;BME280;41294;42.666;23.350;2023-04-22T07:19:58;94737.41;;;19.71;52.25
55424;BME280;41294;42.666;23.350;2023-04-22T07:22:24;94739.84;;;20.77;48.79
55424;BME280;41294;42.666;23.350;2023-04-22T07:24:49;94733.16;;;20.29;49.36
55424;BME280;41294;42.666;23.350;2023-04-22T07:27:15;94735.63;;;21.32;47.55
55424;BME280;41294;42.666;23.350;2023-04-22T07:29:40;94734.38;;;20.09;49.34
55424;BME280;41294;42.666;23.350;2023-04-22T07:32:05;94740.06;;;19.18;52.04
55424;BME280;41294;42.666;23.350;2023-04-22T07:34:31;94733.81;;;18.70;53.82
55424;BME280;41294;42.666;23.350;2023-04-22T07:36:56;94735.19;;;20.23;50.52
55424;BME280;41294;42.666;23.350;2023-04-22T07:39:22;94735.00;;;21.39;47.16
55424;BME280;41294;42.666;23.350;2023-04-22T07:41:47;94736.53;;;22.56;44.76
55424;BME280;41294;42.666;23.350;2023-04-22T07:44:13;94737.03;;;19.32;49.59
55424;BME280;41294;42.666;23.350;2023-04-22T07:46:42;94738.59;;;19.76;50.08
55424;BME280;41294;42.666;23.350;2023-04-22T07:49:08;94729.25;;;21.35;46.85
55424;BME280;41294;42.666;23.350;2023-04-22T07:51:33;94720.69;;;21.93;45.06
55424;BME280;41294;42.666;23.350;2023-04-22T07:53:58;94720.81;;;19.30;50.39
55424;BME280;41294;42.666;23.350;2023-04-22T07:56:24;94727.09;;;19.33;50.87
55424;BME280;41294;42.666;23.350;2023-04-22T07:58:49;94725.00;;;20.95;47.60
55424;BME280;41294;42.666;23.350;2023-04-22T08:01:14;94726.03;;;20.55;47.62
55424;BME280;41294;42.666;23.350;2023-04-22T08:03:40;94723.34;;;19.94;49.01
55424;BME280;41294;42.666;23.350;2023-04-22T08:06:06;94719.25;;;18.30;51.87
55424;BME280;41294;42.666;23.350;2023-04-22T08:08:31;94716.56;;;16.86;56.21
55424;BME280;41294;42.666;23.350;2023-04-22T08:10:57;94716.00;;;18.48;52.42
55424;BME280;41294;42.666;23.350;2023-04-22T08:13:22;94712.91;;;18.39;50.90
55424;BME280;41294;42.666;23.350;2023-04-22T08:15:47;94707.34;;;17.64;53.53
55424;BME280;41294;42.666;23.350;2023-04-22T08:18:13;94710.50;;;18.35;52.29
55424;BME280;41294;42.666;23.350;2023-04-22T08:20:38;94714.28;;;19.26;49.31
55424;BME280;41294;42.666;23.350;2023-04-22T08:23:04;94715.19;;;20.66;46.27
55424;BME280;41294;42.666;23.350;2023-04-22T08:25:31;94704.59;;;21.93;43.10
55424;BME280;41294;42.666;23.350;2023-04-22T08:27:56;94707.53;;;22.88;40.68
55424;BME280;41294;42.666;23.350;2023-04-22T08:30:22;94702.84;;;23.22;39.06
55424;BME280;41294;42.666;23.350;2023-04-22T08:32:47;94705.44;;;24.03;37.68
55424;BME280;41294;42.666;23.350;2023-04-22T08:35:13;94695.81;;;24.15;37.16
55424;BME280;41294;42.666;23.350;2023-04-22T08:37:40;94701.19;;;24.50;36.49
55424;BME280;41294;42.666;23.350;2023-04-22T08:40:06;94693.13;;;23.59;37.59
55424;BME280;41294;42.666;23.350;2023-04-22T08:42:32;94690.72;;;24.39;37.17
55424;BME280;41294;42.666;23.350;2023-04-22T08:44:58;94690.00;;;24.39;36.81
55424;BME280;41294;42.666;23.350;2023-04-22T08:47:24;94680.25;;;24.21;36.09
55424;BME280;41294;42.666;23.350;2023-04-22T08:49:53;94671.81;;;24.60;36.01
55424;BME280;41294;42.666;23.350;2023-04-22T08:52:19;94672.16;;;22.43;38.50
55424;BME280;41294;42.666;23.350;2023-04-22T08:54:45;94668.69;;;22.89;39.29
55424;BME280;41294;42.666;23.350;2023-04-22T08:57:11;94661.25;;;23.35;37.84
55424;BME280;41294;42.666;23.350;2023-04-22T08:59:37;94664.28;;;24.23;36.99
55424;BME280;41294;42.666;23.350;2023-04-22T09:02:04;94661.47;;;25.23;34.50
55424;BME280;41294;42.666;23.350;2023-04-22T09:04:30;94656.97;;;25.71;33.35
55424;BME280;41294;42.666;23.350;2023-04-22T09:06:57;94665.78;;;25.71;32.97
55424;BME280;41294;42.666;23.350;2023-04-22T09:09:23;94655.72;;;25.79;32.29
55424;BME280;41294;42.666;23.350;2023-04-22T09:11:49;94658.19;;;24.80;33.74
55424;BME280;41294;42.666;23.350;2023-04-22T09:14:15;94662.31;;;24.74;34.13
55424;BME280;41294;42.666;23.350;2023-04-22T09:16:46;94671.38;;;24.48;34.02
55424;BME280;41294;42.666;23.350;2023-04-22T09:19:12;94652.34;;;25.11;33.85
55424;BME280;41294;42.666;23.350;2023-04-22T09:21:39;94656.63;;;25.52;32.89
55424;BME280;41294;42.666;23.350;2023-04-22T09:24:06;94659.09;;;25.87;32.63
55424;BME280;41294;42.666;23.350;2023-04-22T09:26:32;94660.53;;;26.50;31.22
55424;BME280;41294;42.666;23.350;2023-04-22T09:28:58;94643.78;;;26.51;30.52
55424;BME280;41294;42.666;23.350;2023-04-22T09:31:26;94643.91;;;26.61;30.10
55424;BME280;41294;42.666;23.350;2023-04-22T09:33:57;94632.50;;;25.69;31.06
55424;BME280;41294;42.666;23.350;2023-04-22T09:36:30;94627.84;;;24.80;32.78
55424;BME280;41294;42.666;23.350;2023-04-22T09:39:00;94635.91;;;24.65;32.62
55424;BME280;41294;42.666;23.350;2023-04-22T09:41:30;94639.31;;;24.73;32.63
55424;BME280;41294;42.666;23.350;2023-04-22T09:43:57;94635.03;;;24.85;31.70
55424;BME280;41294;42.666;23.350;2023-04-22T09:46:25;94640.91;;;24.10;31.97
55424;BME280;41294;42.666;23.350;2023-04-22T09:48:51;94636.88;;;24.32;31.79
55424;BME280;41294;42.666;23.350;2023-04-22T09:51:20;94637.72;;;23.84;32.04
55424;BME280;41294;42.666;23.350;2023-04-22T09:54:05;94632.34;;;23.08;34.67
55424;BME280;41294;42.666;23.350;2023-04-22T09:56:50;94632.25;;;22.60;34.73
55424;BME280;41294;42.666;23.350;2023-04-22T09:59:24;94630.13;;;22.12;36.17
55424;BME280;41294;42.666;23.350;2023-04-22T10:01:58;94637.47;;;20.71;40.12
55424;BME280;41294;42.666;23.350;2023-04-22T10:04:25;94648.63;;;19.83;42.03
55424;BME280;41294;42.666;23.350;2023-04-22T10:06:51;94655.16;;;19.16;41.84
55424;BME280;41294;42.666;23.350;2023-04-22T10:09:19;94642.63;;;19.06;42.34
55424;BME280;41294;42.666;23.350;2023-04-22T10:11:46;94643.72;;;18.87;42.05
55424;BME280;41294;42.666;23.350;2023-04-22T10:14:13;94642.44;;;18.98;41.73
55424;BME280;41294;42.666;23.350;2023-04-22T10:16:39;94640.53;;;18.64;41.47
55424;BME280;41294;42.666;23.350;2023-04-22T10:19:06;94640.28;;;18.27;42.61
55424;BME280;41294;42.666;23.350;2023-04-22T10:21:35;94647.22;;;19.05;40.89
55424;BME280;41294;42.666;23.350;2023-04-22T10:24:02;94634.78;;;18.84;41.52
55424;BME280;41294;42.666;23.350;2023-04-22T10:26:57;94631.38;;;17.57;43.40
55424;BME280;41294;42.666;23.350;2023-04-22T10:29:25;94631.94;;;17.96;42.96
55424;BME280;41294;42.666;23.350;2023-04-22T10:32:03;94622.47;;;18.01;42.01
55424;BME280;41294;42.666;23.350;2023-04-22T10:34:30;94621.94;;;18.08;41.57
55424;BME280;41294;42.666;23.350;2023-04-22T10:37:07;94628.63;;;17.85;42.63
55424;BME280;41294;42.666;23.350;2023-04-22T10:39:34;94634.72;;;17.69;45.14
55424;BME280;41294;42.666;23.350;2023-04-22T10:44:30;94628.34;;;17.94;43.32
55424;BME280;41294;42.666;23.350;2023-04-22T10:47:08;94615.75;;;16.94;44.47
55424;BME280;41294;42.666;23.350;2023-04-22T10:49:34;94609.63;;;17.48;42.83
55424;BME280;41294;42.666;23.350;2023-04-22T10:52:00;94614.50;;;18.46;42.12
55424;BME280;41294;42.666;23.350;2023-04-22T10:57:07;94603.72;;;18.57;39.80
55424;BME280;41294;42.666;23.350;2023-04-22T10:59:52;94614.97;;;19.75;37.30
55424;BME280;41294;42.666;23.350;2023-04-22T11:02:19;94598.50;;;19.89;37.86
55424;BME280;41294;42.666;23.350;2023-04-22T11:04:45;94607.09;;;20.56;36.26
55424;BME280;41294;42.666;23.350;2023-04-22T11:09:46;94607.59;;;19.63;36.63
55424;BME280;41294;42.666;23.350;2023-04-22T11:12:52;94605.09;;;20.75;35.10
55424;BME280;41294;42.666;23.350;2023-04-22T11:15:18;94606.94;;;21.24;34.63
55424;BME280;41294;42.666;23.350;2023-04-22T11:17:50;94602.00;;;19.84;37.00
55424;BME280;41294;42.666;23.350;2023-04-22T11:20:16;94611.88;;;17.90;42.56
55424;BME280;41294;42.666;23.350;2023-04-22T11:22:44;94614.38;;;17.77;43.94
55424;BME280;41294;42.666;23.350;2023-04-22T11:25:10;94617.28;;;18.59;44.04
55424;BME280;41294;42.666;23.350;2023-04-22T11:27:39;94622.38;;;17.77;46.58
55424;BME280;41294;42.666;23.350;2023-04-22T11:30:23;94630.34;;;17.77;47.48
55424;BME280;41294;42.666;23.350;2023-04-22T11:32:50;94630.97;;;18.74;44.39
55424;BME280;41294;42.666;23.350;2023-04-22T11:35:20;94646.72;;;18.43;44.85
55424;BME280;41294;42.666;23.350;2023-04-22T11:40:15;94644.91;;;17.65;47.71
55424;BME280;41294;42.666;23.350;2023-04-22T11:42:41;94640.66;;;17.91;46.56
55424;BME280;41294;42.666;23.350;2023-04-22T11:45:07;94649.16;;;18.46;45.04
55424;BME280;41294;42.666;23.350;2023-04-22T11:47:33;94660.31;;;18.39;47.02
55424;BME280;41294;42.666;23.350;2023-04-22T11:50:04;94654.16;;;18.90;45.11
55424;BME280;41294;42.666;23.350;2023-04-22T11:57:53;94670.59;;;17.46;48.20
55424;BME280;41294;42.666;23.350;2023-04-22T12:00:20;94658.47;;;18.18;47.61
55424;BME280;41294;42.666;23.350;2023-04-22T12:03:20;94664.16;;;18.44;46.09
55424;BME280;41294;42.666;23.350;2023-04-22T12:06:00;94665.25;;;18.65;47.02
55424;BME280;41294;42.666;23.350;2023-04-22T12:10:59;94669.22;;;18.47;47.73
55424;BME280;41294;42.666;23.350;2023-04-22T12:13:41;94669.47;;;18.49;47.46
55424;BME280;41294;42.666;23.350;2023-04-22T12:16:16;94670.72;;;17.92;49.68
55424;BME280;41294;42.666;23.350;2023-04-22T12:18:50;94665.75;;;18.63;46.58
55424;BME280;41294;42.666;23.350;2023-04-22T12:21:21;94670.56;;;19.29;44.13
55424;BME280;41294;42.666;23.350;2023-04-22T12:23:53;94666.41;;;19.33;42.92
55424;BME280;41294;42.666;23.350;2023-04-22T12:26:21;94666.44;;;18.98;44.60
55424;BME280;41294;42.666;23.350;2023-04-22T12:28:48;94673.13;;;19.16;45.06
55424;BME280;41294;42.666;23.350;2023-04-22T12:31:14;94672.97;;;19.03;45.25
55424;BME280;41294;42.666;23.350;2023-04-22T12:33:41;94666.03;;;18.60;45.93
55424;BME280;41294;42.666;23.350;2023-04-22T12:36:06;94662.09;;;18.61;46.25
55424;BME280;41294;42.666;23.350;2023-04-22T12:38:32;94666.63;;;18.42;46.60
55424;BME280;41294;42.666;23.350;2023-04-22T12:40:57;94661.13;;;18.23;47.24
55424;BME280;41294;42.666;23.350;2023-04-22T12:43:23;94671.91;;;18.82;46.68
55424;BME280;41294;42.666;23.350;2023-04-22T12:45:49;94662.47;;;18.46;47.44
55424;BME280;41294;42.666;23.350;2023-04-22T12:48:15;94686.09;;;17.04;50.37
55424;BME280;41294;42.666;23.350;2023-04-22T12:50:40;94658.28;;;17.27;50.94
55424;BME280;41294;42.666;23.350;2023-04-22T12:53:06;94657.84;;;16.90;51.35
55424;BME280;41294;42.666;23.350;2023-04-22T12:55:31;94664.03;;;17.63;50.99
55424;BME280;41294;42.666;23.350;2023-04-22T12:57:57;94655.59;;;18.16;50.25
55424;BME280;41294;42.666;23.350;2023-04-22T13:00:23;94647.19;;;17.96;50.33
55424;BME280;41294;42.666;23.350;2023-04-22T13:02:49;94650.84;;;17.93;49.39
55424;BME280;41294;42.666;23.350;2023-04-22T13:05:18;94664.56;;;17.24;52.25
55424;BME280;41294;42.666;23.350;2023-04-22T13:07:44;94659.00;;;17.16;51.91
55424;BME280;41294;42.666;23.350;2023-04-22T13:10:14;94657.03;;;17.55;50.59